Time;durP1;ratioP1;P1;durP2;ratioP2;P2;SDS_P1;SDS_P2;PMS_P1;PMS_P2;Temp;Humidity;BMP_temperature;BMP_pressure;BME280_temperature;BME280_humidity;BME280_pressure;Samples;Min_cycle;Max_cycle;Signal;HPM_P1;HPM_P2
2022/02/24 00:02:00;;;;;;;;;;;0.10;99.90;;;;;;5032501;28;19920;-81
2022/02/24 00:04:25;;;;;;;;;;;0.10;99.90;;;;;;5043308;28;20367;-81
2022/02/24 00:06:51;;;;;;;;;;;0.00;99.90;;;;;;5014689;28;20008;-81
2022/02/24 00:09:16;;;;;;;;;;;0.00;99.90;;;;;;5028392;28;19923;-81
2022/02/24 00:11:42;;;;;;;;;;;0.00;99.90;;;;;;5024388;28;19936;-81
2022/02/24 00:14:07;;;;;;;;;;;-0.10;99.90;;;;;;5043992;28;20378;-80
2022/02/24 00:16:36;;;;;;;;;;;-0.10;99.90;;;;;;5024520;28;20382;-81
2022/02/24 00:19:01;;;;;;;;;;;-0.10;99.90;;;;;;5057225;28;19967;-81
2022/02/24 00:21:28;;;;;;;;;;;-0.10;99.90;;;;;;5035346;28;19924;-81
2022/02/24 00:23:54;;;;;;;;;;;0.00;99.90;;;;;;5051578;28;19947;-81
2022/02/24 00:26:19;;;;;;;;;;;0.00;99.90;;;;;;5034106;28;20406;-81
2022/02/24 00:28:45;;;;;;;;;;;0.00;99.90;;;;;;5030864;28;19913;-81
2022/02/24 00:31:10;;;;;;;;;;;-0.10;99.90;;;;;;5031637;28;19917;-81
2022/02/24 00:33:38;;;;;;;;;;;-0.10;99.90;;;;;;5055119;22;20407;-82
2022/02/24 00:36:05;;;;;;;;;;;-0.10;99.90;;;;;;5050338;28;20117;-82
2022/02/24 00:38:30;;;;;;;;;;;0.00;99.90;;;;;;5053736;28;19917;-82
2022/02/24 00:40:56;;;;;;;;;;;0.10;99.90;;;;;;5051043;28;19913;-79
2022/02/24 00:43:22;;;;;;;;;;;0.00;99.90;;;;;;5050949;28;19916;-80
2022/02/24 00:45:48;;;;;;;;;;;0.00;99.90;;;;;;5050973;28;20436;-80
2022/02/24 00:48:13;;;;;;;;;;;-0.10;99.90;;;;;;5050166;28;19917;-80
2022/02/24 00:50:39;;;;;;;;;;;-0.10;99.90;;;;;;5056502;28;19921;-80
2022/02/24 00:53:04;;;;;;;;;;;-0.10;99.90;;;;;;5039194;28;19924;-79
2022/02/24 00:55:30;;;;;;;;;;;0.00;99.90;;;;;;5035712;28;20027;-80
2022/02/24 00:57:56;;;;;;;;;;;-0.10;99.90;;;;;;5039881;28;19913;-79
2022/02/24 01:00:22;;;;;;;;;;;-0.10;99.90;;;;;;5052153;28;19917;-79
2022/02/24 01:02:47;;;;;;;;;;;-0.10;99.90;;;;;;5033981;28;19925;-79
2022/02/24 01:05:13;;;;;;;;;;;-0.10;99.90;;;;;;5050849;28;19921;-79
2022/02/24 01:07:39;;;;;;;;;;;-0.10;99.90;;;;;;5049872;28;19919;-79
2022/02/24 01:10:05;;;;;;;;;;;-0.20;99.90;;;;;;5049841;28;19925;-79
2022/02/24 01:12:31;;;;;;;;;;;-0.20;99.90;;;;;;5055252;28;20035;-79
2022/02/24 01:14:58;;;;;;;;;;;-0.20;99.90;;;;;;5051818;28;20070;-79
2022/02/24 01:17:24;;;;;;;;;;;-0.10;99.90;;;;;;5039198;28;19916;-79
2022/02/24 01:19:49;;;;;;;;;;;-0.10;99.90;;;;;;5047384;28;20391;-79
2022/02/24 01:22:16;;;;;;;;;;;-0.20;99.90;;;;;;5062402;28;19919;-79
2022/02/24 01:24:42;;;;;;;;;;;-0.20;99.90;;;;;;5050034;28;19923;-79
2022/02/24 01:27:08;;;;;;;;;;;-0.20;99.90;;;;;;5050102;28;19921;-79
2022/02/24 01:29:33;;;;;;;;;;;-0.10;99.90;;;;;;5049232;28;19924;-79
2022/02/24 01:31:59;;;;;;;;;;;-0.20;99.90;;;;;;5050250;28;20397;-79
2022/02/24 01:34:27;;;;;;;;;;;-0.20;99.90;;;;;;5017097;28;19925;-79
2022/02/24 01:36:53;;;;;;;;;;;-0.20;99.90;;;;;;5030200;28;19918;-79
2022/02/24 01:39:18;;;;;;;;;;;-0.20;99.90;;;;;;5040502;28;20391;-79
2022/02/24 01:41:44;;;;;;;;;;;-0.10;99.90;;;;;;5029653;28;19932;-79
2022/02/24 01:44:10;;;;;;;;;;;-0.10;99.90;;;;;;5029553;28;19921;-79
2022/02/24 01:46:36;;;;;;;;;;;-0.10;99.90;;;;;;5034164;28;20013;-79
2022/02/24 01:49:03;;;;;;;;;;;-0.10;99.90;;;;;;5050629;28;19912;-79
2022/02/24 01:51:29;;;;;;;;;;;-0.10;99.90;;;;;;5047006;28;19946;-79
2022/02/24 01:53:55;;;;;;;;;;;-0.10;99.90;;;;;;5035817;28;19916;-79
2022/02/24 01:56:20;;;;;;;;;;;0.00;99.90;;;;;;5049091;28;20520;-79
2022/02/24 01:58:48;;;;;;;;;;;-0.10;99.90;;;;;;5047133;28;19955;-79
2022/02/24 02:01:14;;;;;;;;;;;-0.10;99.90;;;;;;5011751;28;20413;-79
2022/02/24 02:03:40;;;;;;;;;;;-0.10;99.90;;;;;;5029445;28;19940;-79
2022/02/24 02:06:06;;;;;;;;;;;0.00;99.90;;;;;;5017503;28;19975;-79
2022/02/24 02:08:32;;;;;;;;;;;0.00;99.90;;;;;;5047519;28;19970;-79
2022/02/24 02:10:57;;;;;;;;;;;0.00;99.90;;;;;;5032960;28;19956;-79
2022/02/24 02:13:23;;;;;;;;;;;0.00;99.90;;;;;;5033594;28;20003;-79
2022/02/24 02:15:49;;;;;;;;;;;0.00;99.90;;;;;;5051311;28;20607;-79
2022/02/24 02:18:19;;;;;;;;;;;0.00;99.90;;;;;;5040819;28;19956;-79
2022/02/24 02:20:45;;;;;;;;;;;-0.10;99.90;;;;;;5049209;28;19917;-79
2022/02/24 02:23:11;;;;;;;;;;;-0.10;99.90;;;;;;5050339;28;20007;-79
2022/02/24 02:25:36;;;;;;;;;;;0.00;99.90;;;;;;5066653;28;20374;-79
2022/02/24 02:28:02;;;;;;;;;;;0.00;99.90;;;;;;5050054;28;19917;-79
2022/02/24 02:30:28;;;;;;;;;;;0.00;99.90;;;;;;5046614;28;19913;-79
2022/02/24 02:32:54;;;;;;;;;;;0.00;99.90;;;;;;5064772;28;20390;-79
2022/02/24 02:35:20;;;;;;;;;;;0.10;99.90;;;;;;5036894;28;19921;-79
2022/02/24 02:37:46;;;;;;;;;;;0.10;99.90;;;;;;5020082;28;20064;-79
2022/02/24 02:40:12;;;;;;;;;;;0.10;99.90;;;;;;5055364;28;20290;-79
2022/02/24 02:42:38;;;;;;;;;;;0.20;99.90;;;;;;5053130;28;20278;-79
2022/02/24 02:45:04;;;;;;;;;;;0.20;99.90;;;;;;5034629;28;20012;-79
2022/02/24 02:47:30;;;;;;;;;;;0.20;99.90;;;;;;5067562;28;20357;-79
2022/02/24 02:49:55;;;;;;;;;;;0.20;99.90;;;;;;5042399;28;19913;-79
2022/02/24 02:52:22;;;;;;;;;;;0.10;99.90;;;;;;5035283;28;19928;-79
2022/02/24 02:54:50;;;;;;;;;;;0.10;99.90;;;;;;5041861;28;20302;-79
2022/02/24 02:57:15;;;;;;;;;;;0.10;99.90;;;;;;5053227;28;19940;-79
2022/02/24 02:59:41;;;;;;;;;;;0.10;99.90;;;;;;5033954;28;20383;-79
2022/02/24 03:02:06;;;;;;;;;;;0.10;99.90;;;;;;5036828;28;19959;-79
2022/02/24 03:04:32;;;;;;;;;;;0.00;99.90;;;;;;5052151;28;19923;-79
2022/02/24 03:06:57;;;;;;;;;;;0.00;99.90;;;;;;5037122;28;19917;-79
2022/02/24 03:09:23;;;;;;;;;;;0.00;99.90;;;;;;5018181;28;19921;-78
2022/02/24 03:11:48;;;;;;;;;;;0.10;99.90;;;;;;5067607;28;19913;-78
2022/02/24 03:14:14;;;;;;;;;;;0.10;99.90;;;;;;5050882;28;20314;-79
2022/02/24 03:16:40;;;;;;;;;;;0.00;99.90;;;;;;5068895;28;19917;-78
2022/02/24 03:19:05;;;;;;;;;;;-0.10;99.90;;;;;;5048257;28;20294;-78
2022/02/24 03:21:31;;;;;;;;;;;-0.10;99.90;;;;;;5021228;28;19917;-79
2022/02/24 03:23:57;;;;;;;;;;;-0.10;99.90;;;;;;5050287;28;20329;-79
2022/02/24 03:26:22;;;;;;;;;;;-0.10;99.90;;;;;;5055098;28;19912;-79
2022/02/24 03:28:48;;;;;;;;;;;0.00;99.90;;;;;;5052469;28;19924;-79
2022/02/24 03:31:14;;;;;;;;;;;0.00;99.90;;;;;;5054885;28;19913;-78
2022/02/24 03:33:40;;;;;;;;;;;0.00;99.90;;;;;;5053898;28;20475;-78
2022/02/24 03:36:06;;;;;;;;;;;0.00;99.90;;;;;;5054985;28;19919;-79
2022/02/24 03:38:31;;;;;;;;;;;-0.10;99.90;;;;;;5057046;28;20344;-79
2022/02/24 03:41:00;;;;;;;;;;;-0.10;99.90;;;;;;5021599;28;19917;-78
2022/02/24 03:43:26;;;;;;;;;;;-0.10;99.90;;;;;;5038712;28;20361;-78
2022/02/24 03:45:51;;;;;;;;;;;-0.10;99.90;;;;;;5035206;28;19925;-78
2022/02/24 03:48:18;;;;;;;;;;;-0.10;99.90;;;;;;5046063;28;20394;-78
2022/02/24 03:50:43;;;;;;;;;;;-0.20;99.90;;;;;;5052863;28;20004;-78
2022/02/24 03:53:09;;;;;;;;;;;-0.10;99.90;;;;;;5036811;28;19936;-79
2022/02/24 03:55:34;;;;;;;;;;;-0.20;99.90;;;;;;5052532;28;20407;-79
2022/02/24 03:58:00;;;;;;;;;;;-0.20;99.90;;;;;;5035779;28;19959;-78
2022/02/24 04:00:25;;;;;;;;;;;-0.20;99.90;;;;;;5052462;28;19912;-78
2022/02/24 04:02:51;;;;;;;;;;;-0.20;99.90;;;;;;5053984;28;20290;-78
2022/02/24 04:05:17;;;;;;;;;;;-0.20;99.90;;;;;;5051379;28;19921;-79
2022/02/24 04:07:43;;;;;;;;;;;-0.10;99.90;;;;;;5051615;28;19936;-78
2022/02/24 04:10:09;;;;;;;;;;;-0.10;99.90;;;;;;5053085;28;19974;-78
2022/02/24 04:12:36;;;;;;;;;;;-0.10;99.90;;;;;;5070223;28;20306;-78
2022/02/24 04:15:02;;;;;;;;;;;-0.10;99.90;;;;;;5032523;28;19917;-78
2022/02/24 04:17:27;;;;;;;;;;;-0.10;99.90;;;;;;5040906;28;20385;-78
2022/02/24 04:19:53;;;;;;;;;;;0.00;99.90;;;;;;5069394;28;19972;-78
2022/02/24 04:22:18;;;;;;;;;;;0.00;99.90;;;;;;5036651;28;19940;-78
2022/02/24 04:24:44;;;;;;;;;;;0.10;99.90;;;;;;5052941;28;19971;-78
2022/02/24 04:27:10;;;;;;;;;;;0.10;99.90;;;;;;5047368;28;19921;-78
2022/02/24 04:29:36;;;;;;;;;;;0.00;99.90;;;;;;5048691;28;19966;-78
2022/02/24 04:32:02;;;;;;;;;;;0.10;99.90;;;;;;5042236;28;19913;-78
2022/02/24 04:34:27;;;;;;;;;;;0.00;99.90;;;;;;5044958;28;19921;-78
2022/02/24 04:36:53;;;;;;;;;;;0.10;99.90;;;;;;5063566;28;20348;-78
2022/02/24 04:39:18;;;;;;;;;;;0.10;99.90;;;;;;5051732;28;20298;-78
2022/02/24 04:41:44;;;;;;;;;;;0.10;99.90;;;;;;5052095;28;19950;-78
2022/02/24 04:44:10;;;;;;;;;;;0.10;99.90;;;;;;5051956;28;19921;-78
2022/02/24 04:46:35;;;;;;;;;;;0.20;99.90;;;;;;5051540;28;19917;-78
2022/02/24 04:49:01;;;;;;;;;;;0.20;99.90;;;;;;5048989;28;19917;-78
2022/02/24 04:51:26;;;;;;;;;;;0.20;99.90;;;;;;5037066;28;19960;-78
2022/02/24 04:53:52;;;;;;;;;;;0.20;99.90;;;;;;5033887;28;19917;-78
2022/02/24 04:56:17;;;;;;;;;;;0.30;99.90;;;;;;5025712;28;20326;-78
2022/02/24 04:58:43;;;;;;;;;;;0.30;99.90;;;;;;5042792;28;19917;-78
2022/02/24 05:01:08;;;;;;;;;;;0.30;99.90;;;;;;5051262;28;20463;-78
2022/02/24 05:03:34;;;;;;;;;;;0.30;99.90;;;;;;5018503;28;20053;-78
2022/02/24 05:06:00;;;;;;;;;;;0.40;99.90;;;;;;5052264;28;19923;-79
2022/02/24 05:08:25;;;;;;;;;;;0.40;99.90;;;;;;5052964;28;19917;-78
2022/02/24 05:10:52;;;;;;;;;;;0.60;99.90;;;;;;5043514;28;19908;-78
2022/02/24 05:13:18;;;;;;;;;;;0.60;99.90;;;;;;5048477;28;19917;-78
2022/02/24 05:15:43;;;;;;;;;;;0.70;99.90;;;;;;5051989;28;20398;-78
2022/02/24 05:18:09;;;;;;;;;;;0.60;99.90;;;;;;5033398;28;19916;-78
2022/02/24 05:20:36;;;;;;;;;;;0.50;99.90;;;;;;5031179;28;19921;-78
2022/02/24 05:23:02;;;;;;;;;;;0.50;99.90;;;;;;5030240;28;19971;-78
2022/02/24 05:25:30;;;;;;;;;;;0.50;99.90;;;;;;5050645;28;19920;-78
2022/02/24 05:27:56;;;;;;;;;;;0.60;99.90;;;;;;5051884;28;20016;-78
2022/02/24 05:30:21;;;;;;;;;;;0.70;99.90;;;;;;5050247;28;19999;-79
2022/02/24 05:32:47;;;;;;;;;;;0.70;99.90;;;;;;5050380;28;19991;-79
2022/02/24 05:35:13;;;;;;;;;;;0.80;99.90;;;;;;5034338;28;19974;-78
2022/02/24 05:37:38;;;;;;;;;;;0.90;99.90;;;;;;5049117;28;20419;-78
2022/02/24 05:40:05;;;;;;;;;;;0.90;99.90;;;;;;5046056;28;20617;-78
2022/02/24 05:42:30;;;;;;;;;;;0.90;99.90;;;;;;5041530;28;19913;-78
2022/02/24 05:44:56;;;;;;;;;;;1.00;99.90;;;;;;5009208;28;19927;-78
2022/02/24 05:47:22;;;;;;;;;;;1.00;99.90;;;;;;5025836;28;19913;-79
2022/02/24 05:49:48;;;;;;;;;;;1.00;99.90;;;;;;5060851;28;19913;-78
2022/02/24 05:52:14;;;;;;;;;;;1.00;99.90;;;;;;5049317;28;19920;-79
2022/02/24 05:54:40;;;;;;;;;;;0.90;99.90;;;;;;5031515;28;19917;-78
2022/02/24 05:57:05;;;;;;;;;;;0.90;99.90;;;;;;5037799;28;20389;-79
2022/02/24 05:59:31;;;;;;;;;;;0.90;99.90;;;;;;5062731;28;19916;-78
2022/02/24 06:01:56;;;;;;;;;;;1.00;99.90;;;;;;5046891;28;20375;-78
2022/02/24 06:04:22;;;;;;;;;;;1.00;99.90;;;;;;5032490;28;19924;-78
2022/02/24 06:06:49;;;;;;;;;;;0.90;99.90;;;;;;5049344;28;20003;-78
2022/02/24 06:09:15;;;;;;;;;;;1.00;99.90;;;;;;5030040;28;20356;-78
2022/02/24 06:11:41;;;;;;;;;;;0.90;99.90;;;;;;5048959;28;19948;-78
2022/02/24 06:14:06;;;;;;;;;;;0.90;99.90;;;;;;5049740;28;20443;-79
2022/02/24 06:16:33;;;;;;;;;;;0.90;99.90;;;;;;5016245;28;20003;-78
2022/02/24 06:18:59;;;;;;;;;;;0.90;99.90;;;;;;5013536;28;19924;-78
2022/02/24 06:21:24;;;;;;;;;;;1.00;99.90;;;;;;5044468;28;19920;-78
2022/02/24 06:23:50;;;;;;;;;;;1.00;99.90;;;;;;5028568;28;20285;-78
2022/02/24 06:26:16;;;;;;;;;;;0.90;99.90;;;;;;5050987;28;19960;-79
2022/02/24 06:28:41;;;;;;;;;;;1.00;99.90;;;;;;5052700;28;19988;-78
2022/02/24 06:31:07;;;;;;;;;;;1.00;99.90;;;;;;5036620;28;19916;-78
2022/02/24 06:33:33;;;;;;;;;;;1.00;99.90;;;;;;5051046;28;19935;-78
2022/02/24 06:35:59;;;;;;;;;;;1.00;99.90;;;;;;5044346;28;19942;-79
2022/02/24 06:38:25;;;;;;;;;;;1.00;99.90;;;;;;5039288;28;20401;-81
2022/02/24 06:40:52;;;;;;;;;;;1.00;99.90;;;;;;5045912;28;19913;-79
2022/02/24 06:43:19;;;;;;;;;;;1.00;99.90;;;;;;5048322;28;20003;-78
2022/02/24 06:45:45;;;;;;;;;;;1.10;99.90;;;;;;5046682;28;19932;-79
2022/02/24 06:48:10;;;;;;;;;;;1.10;99.90;;;;;;5069708;28;19916;-79
2022/02/24 06:50:36;;;;;;;;;;;1.20;99.90;;;;;;5046588;28;19956;-78
2022/02/24 06:53:01;;;;;;;;;;;1.30;99.90;;;;;;5057630;28;19967;-79
2022/02/24 06:55:28;;;;;;;;;;;1.30;99.90;;;;;;5046309;28;19971;-79
2022/02/24 06:57:53;;;;;;;;;;;1.30;99.90;;;;;;5040123;28;19980;-80
2022/02/24 07:00:20;;;;;;;;;;;1.40;99.90;;;;;;5048414;28;19920;-80
2022/02/24 07:02:46;;;;;;;;;;;1.40;99.90;;;;;;5036579;28;19925;-79
2022/02/24 07:05:12;;;;;;;;;;;1.40;99.90;;;;;;5043254;28;19944;-79
2022/02/24 07:07:37;;;;;;;;;;;1.40;99.90;;;;;;5049282;28;19916;-79
2022/02/24 07:10:04;;;;;;;;;;;1.40;99.90;;;;;;5051834;28;20541;-80
2022/02/24 07:12:30;;;;;;;;;;;1.40;99.90;;;;;;5051901;28;19913;-80
2022/02/24 07:14:56;;;;;;;;;;;1.40;99.90;;;;;;5062713;28;19917;-80
2022/02/24 07:17:22;;;;;;;;;;;1.40;99.90;;;;;;5053016;28;20457;-79
2022/02/24 07:19:48;;;;;;;;;;;1.50;99.90;;;;;;5050974;28;19917;-78
2022/02/24 07:22:14;;;;;;;;;;;1.60;99.90;;;;;;5052583;28;19917;-79
2022/02/24 07:24:39;;;;;;;;;;;1.60;99.90;;;;;;5045400;28;20012;-79
2022/02/24 07:27:05;;;;;;;;;;;1.60;99.90;;;;;;5051487;28;19921;-79
2022/02/24 07:29:30;;;;;;;;;;;1.80;99.90;;;;;;5049950;28;19916;-79
2022/02/24 07:31:56;;;;;;;;;;;1.90;99.90;;;;;;5052623;28;20425;-80
2022/02/24 07:34:21;;;;;;;;;;;1.90;99.90;;;;;;5048696;28;19921;-79
2022/02/24 07:36:49;;;;;;;;;;;1.90;99.90;;;;;;5042094;28;19921;-80
2022/02/24 07:39:16;;;;;;;;;;;2.00;99.90;;;;;;5011426;28;20027;-79
2022/02/24 07:41:41;;;;;;;;;;;2.10;99.90;;;;;;5043031;28;19920;-80
2022/02/24 07:44:07;;;;;;;;;;;2.10;99.90;;;;;;5046755;28;19921;-79
2022/02/24 07:46:33;;;;;;;;;;;2.20;99.90;;;;;;5043707;28;19917;-81
2022/02/24 07:48:59;;;;;;;;;;;2.30;99.90;;;;;;5036497;28;19917;-81
2022/02/24 07:51:25;;;;;;;;;;;2.30;99.90;;;;;;5045983;28;20007;-78
2022/02/24 07:53:50;;;;;;;;;;;2.30;99.90;;;;;;5039495;28;20542;-81
2022/02/24 07:56:16;;;;;;;;;;;2.30;99.90;;;;;;5027042;28;19917;-79
2022/02/24 07:58:42;;;;;;;;;;;2.30;99.90;;;;;;5013673;28;19950;-79
2022/02/24 08:01:07;;;;;;;;;;;2.40;99.90;;;;;;5058204;28;20417;-81
2022/02/24 08:03:33;;;;;;;;;;;2.30;99.90;;;;;;5057650;28;20429;-79
2022/02/24 08:05:59;;;;;;;;;;;2.40;99.90;;;;;;5064067;28;19921;-79
2022/02/24 08:08:24;;;;;;;;;;;2.50;99.90;;;;;;5046882;28;19923;-81
2022/02/24 08:10:50;;;;;;;;;;;2.50;99.90;;;;;;5036821;28;20443;-79
2022/02/24 08:13:16;;;;;;;;;;;2.50;99.90;;;;;;5044206;28;20021;-80
2022/02/24 08:15:42;;;;;;;;;;;2.70;99.90;;;;;;5048291;28;19924;-80
2022/02/24 08:18:08;;;;;;;;;;;2.70;99.90;;;;;;5032660;28;19974;-81
2022/02/24 08:20:33;;;;;;;;;;;2.80;99.90;;;;;;5061121;28;19916;-80
2022/02/24 08:23:01;;;;;;;;;;;2.90;99.90;;;;;;5047256;28;20278;-79
2022/02/24 08:25:27;;;;;;;;;;;2.90;99.90;;;;;;5015731;28;20386;-79
2022/02/24 08:27:54;;;;;;;;;;;2.80;99.90;;;;;;5051421;28;19955;-80
2022/02/24 08:30:21;;;;;;;;;;;2.90;99.90;;;;;;5048106;28;19967;-79
2022/02/24 08:32:48;;;;;;;;;;;2.90;99.90;;;;;;5062740;28;20264;-79
2022/02/24 08:35:14;;;;;;;;;;;2.90;99.90;;;;;;5048768;28;19923;-79
2022/02/24 08:37:40;;;;;;;;;;;2.90;99.90;;;;;;5026291;28;19943;-79
2022/02/24 08:40:07;;;;;;;;;;;2.90;99.90;;;;;;5056232;28;19913;-80
2022/02/24 08:42:32;;;;;;;;;;;3.00;99.90;;;;;;5067306;28;19959;-79
2022/02/24 08:44:58;;;;;;;;;;;3.00;99.90;;;;;;5050973;28;20350;-79
2022/02/24 08:47:23;;;;;;;;;;;3.10;99.90;;;;;;5065896;28;19916;-79
2022/02/24 08:49:51;;;;;;;;;;;3.20;99.90;;;;;;5067420;28;19959;-79
2022/02/24 08:52:16;;;;;;;;;;;3.30;99.90;;;;;;5051480;28;20008;-79
2022/02/24 08:54:42;;;;;;;;;;;3.30;99.90;;;;;;5066754;28;19954;-80
2022/02/24 08:57:08;;;;;;;;;;;3.40;99.90;;;;;;5066815;28;19967;-80
2022/02/24 08:59:34;;;;;;;;;;;3.40;99.90;;;;;;5063797;28;20011;-80
2022/02/24 09:01:59;;;;;;;;;;;3.50;99.90;;;;;;5040966;28;19913;-82
2022/02/24 09:04:25;;;;;;;;;;;3.50;99.90;;;;;;5049666;28;20410;-80
2022/02/24 09:06:51;;;;;;;;;;;3.60;99.90;;;;;;5041024;28;20392;-79
2022/02/24 09:09:16;;;;;;;;;;;3.50;99.90;;;;;;5044823;28;20016;-80
2022/02/24 09:11:42;;;;;;;;;;;3.60;99.90;;;;;;5062717;28;20000;-80
2022/02/24 09:14:08;;;;;;;;;;;3.60;99.90;;;;;;5048333;28;19963;-80
2022/02/24 09:16:34;;;;;;;;;;;3.60;99.90;;;;;;5047361;28;20283;-79
2022/02/24 09:18:59;;;;;;;;;;;3.70;99.90;;;;;;5035225;28;20330;-80
2022/02/24 09:21:25;;;;;;;;;;;3.60;99.90;;;;;;5029898;28;19975;-79
2022/02/24 09:23:51;;;;;;;;;;;3.70;99.90;;;;;;5016162;28;19914;-80
2022/02/24 09:26:17;;;;;;;;;;;3.80;99.90;;;;;;5038715;28;20034;-80
2022/02/24 09:28:42;;;;;;;;;;;3.70;99.90;;;;;;5050011;28;19917;-80
2022/02/24 09:31:08;;;;;;;;;;;3.80;99.90;;;;;;5050054;28;19913;-80
2022/02/24 09:33:34;;;;;;;;;;;3.90;99.90;;;;;;5050157;28;19946;-80
2022/02/24 09:35:59;;;;;;;;;;;4.00;99.90;;;;;;5066629;28;19913;-79
2022/02/24 09:38:25;;;;;;;;;;;4.00;99.90;;;;;;5049788;28;19948;-79
2022/02/24 09:40:56;;;;;;;;;;;4.20;99.90;;;;;;5048734;28;20375;-80
2022/02/24 09:43:31;;;;;;;;;;;4.30;99.90;;;;;;5050122;28;19917;-80
2022/02/24 09:45:58;;;;;;;;;;;4.40;99.90;;;;;;5064964;28;20039;-81
2022/02/24 09:48:29;;;;;;;;;;;4.50;99.90;;;;;;5050950;28;19982;-80
2022/02/24 09:50:55;;;;;;;;;;;4.60;99.90;;;;;;5046569;28;20333;-80
2022/02/24 09:53:22;;;;;;;;;;;4.70;99.90;;;;;;5045780;28;19916;-80
2022/02/24 09:55:47;;;;;;;;;;;4.70;99.90;;;;;;5063010;28;19917;-80
2022/02/24 09:58:13;;;;;;;;;;;4.80;99.90;;;;;;5052078;28;20336;-80
2022/02/24 10:00:39;;;;;;;;;;;4.90;99.90;;;;;;5051051;28;19916;-80
2022/02/24 10:03:23;;;;;;;;;;;5.00;99.90;;;;;;5032060;28;19970;-80
2022/02/24 10:05:48;;;;;;;;;;;5.10;99.90;;;;;;5053622;28;19917;-80
2022/02/24 10:08:14;;;;;;;;;;;5.20;99.90;;;;;;5052631;28;19917;-79
2022/02/24 10:10:42;;;;;;;;;;;5.30;99.90;;;;;;5070429;28;20337;-80
2022/02/24 10:13:09;;;;;;;;;;;5.40;99.90;;;;;;5054742;28;19919;-80
2022/02/24 10:15:42;;;;;;;;;;;5.50;99.90;;;;;;5061116;28;20377;-79
2022/02/24 10:18:12;;;;;;;;;;;5.60;99.90;;;;;;5050961;28;19917;-79
2022/02/24 10:20:43;;;;;;;;;;;5.70;99.90;;;;;;5047015;28;19921;-79
2022/02/24 10:23:10;;;;;;;;;;;5.80;99.90;;;;;;5049558;28;19912;-79
2022/02/24 10:25:36;;;;;;;;;;;5.90;99.90;;;;;;5064411;28;19917;-79
2022/02/24 10:28:02;;;;;;;;;;;6.00;99.90;;;;;;5053432;28;20045;-80
2022/02/24 10:30:28;;;;;;;;;;;6.10;99.90;;;;;;5045816;28;20001;-79
2022/02/24 10:32:55;;;;;;;;;;;6.20;99.90;;;;;;5035607;28;20264;-78
2022/02/24 10:35:21;;;;;;;;;;;6.20;99.90;;;;;;5043844;28;19917;-79
2022/02/24 10:37:50;;;;;;;;;;;6.30;99.90;;;;;;5054658;28;19920;-79
2022/02/24 10:40:16;;;;;;;;;;;6.40;99.90;;;;;;5052074;28;19924;-79
2022/02/24 10:42:41;;;;;;;;;;;6.50;99.90;;;;;;5047774;28;20278;-79
2022/02/24 10:45:08;;;;;;;;;;;6.60;99.90;;;;;;5054318;28;19921;-78
2022/02/24 10:47:33;;;;;;;;;;;6.70;99.90;;;;;;5053701;28;19913;-78
2022/02/24 10:49:59;;;;;;;;;;;6.70;99.90;;;;;;5053119;28;20286;-79
2022/02/24 10:52:24;;;;;;;;;;;6.70;99.90;;;;;;5036061;28;19920;-78
2022/02/24 10:55:07;;;;;;;;;;;6.80;99.90;;;;;;5049037;28;19967;-78
2022/02/24 10:57:33;;;;;;;;;;;6.80;99.90;;;;;;5061375;28;19913;-78
2022/02/24 10:59:59;;;;;;;;;;;6.90;99.90;;;;;;5052984;28;19920;-79
2022/02/24 11:02:25;;;;;;;;;;;6.90;99.90;;;;;;5060359;28;19932;-79
2022/02/24 11:04:54;;;;;;;;;;;7.00;99.90;;;;;;5064827;28;19952;-79
2022/02/24 11:07:20;;;;;;;;;;;7.20;99.90;;;;;;5019395;28;19944;-79
2022/02/24 11:09:49;;;;;;;;;;;7.40;99.90;;;;;;5034190;28;19925;-79
2022/02/24 11:12:16;;;;;;;;;;;7.50;99.90;;;;;;5045728;28;20421;-79
2022/02/24 11:14:45;;;;;;;;;;;7.60;99.90;;;;;;5051308;28;19936;-80
2022/02/24 11:17:11;;;;;;;;;;;7.70;99.90;;;;;;5032310;28;19924;-78
2022/02/24 11:19:37;;;;;;;;;;;7.90;99.90;;;;;;5042967;28;20276;-79
2022/02/24 11:22:04;;;;;;;;;;;8.10;99.90;;;;;;5068394;28;19917;-79
2022/02/24 11:24:29;;;;;;;;;;;8.30;99.90;;;;;;5065684;28;19917;-79
2022/02/24 11:26:58;;;;;;;;;;;8.50;99.90;;;;;;5066007;28;20406;-79
2022/02/24 11:29:29;;;;;;;;;;;8.60;99.90;;;;;;5050749;28;19917;-79
2022/02/24 11:32:10;;;;;;;;;;;8.70;99.90;;;;;;5055882;28;20397;-79
2022/02/24 11:34:54;;;;;;;;;;;8.80;99.90;;;;;;5053409;28;20016;-79
2022/02/24 11:37:23;;;;;;;;;;;9.00;99.90;;;;;;5068594;28;20375;-79
2022/02/24 11:39:54;;;;;;;;;;;9.10;99.90;;;;;;5053807;28;19965;-79
2022/02/24 11:42:24;;;;;;;;;;;9.20;99.90;;;;;;5052389;28;20291;-79
2022/02/24 11:44:49;;;;;;;;;;;9.30;99.90;;;;;;5038833;28;19957;-79
2022/02/24 11:47:15;;;;;;;;;;;9.40;99.90;;;;;;5053540;28;20390;-79
2022/02/24 11:49:53;;;;;;;;;;;9.40;99.90;;;;;;5051519;28;20328;-79
2022/02/24 11:52:23;;;;;;;;;;;9.40;99.90;;;;;;5049997;28;19944;-79
2022/02/24 11:54:49;;;;;;;;;;;9.40;99.90;;;;;;5068667;28;19934;-79
2022/02/24 11:57:27;;;;;;;;;;;9.40;99.90;;;;;;5052838;28;20290;-79
2022/02/24 11:59:53;;;;;;;;;;;9.50;99.90;;;;;;5067593;28;20413;-79
2022/02/24 12:02:18;;;;;;;;;;;9.50;99.90;;;;;;5067401;28;19940;-79
2022/02/24 12:04:47;;;;;;;;;;;9.60;99.90;;;;;;5050432;28;20326;-78
2022/02/24 12:07:14;;;;;;;;;;;9.60;99.90;;;;;;5052175;28;19924;-78
2022/02/24 12:09:40;;;;;;;;;;;9.60;99.90;;;;;;5050907;28;20394;-79
2022/02/24 12:12:20;;;;;;;;;;;9.60;99.90;;;;;;5031798;28;20015;-79
2022/02/24 12:14:56;;;;;;;;;;;9.60;99.90;;;;;;5036892;28;19928;-79
2022/02/24 12:17:23;;;;;;;;;;;9.60;99.90;;;;;;5050759;28;19913;-79
2022/02/24 12:20:02;;;;;;;;;;;9.60;99.90;;;;;;5045261;28;19980;-79
2022/02/24 12:22:31;;;;;;;;;;;9.60;99.90;;;;;;5042594;28;19919;-80
2022/02/24 12:25:12;;;;;;;;;;;9.80;99.90;;;;;;5051890;28;19991;-80
2022/02/24 12:28:00;;;;;;;;;;;10.00;99.90;;;;;;5030366;28;20400;-79
2022/02/24 12:30:27;;;;;;;;;;;10.20;99.90;;;;;;5032705;28;20383;-79
2022/02/24 12:33:07;;;;;;;;;;;10.40;99.90;;;;;;5030984;28;20010;-80
2022/02/24 12:35:34;;;;;;;;;;;10.60;99.90;;;;;;5080154;22;19936;-85
2022/02/24 12:38:00;;;;;;;;;;;10.70;99.90;;;;;;5052302;28;19962;-87
2022/02/24 12:40:36;;;;;;;;;;;10.80;99.90;;;;;;5036578;28;19935;-86
2022/02/24 12:43:03;;;;;;;;;;;10.90;99.90;;;;;;5032109;28;19963;-87
2022/02/24 12:45:29;;;;;;;;;;;10.90;99.90;;;;;;5020453;28;19934;-85
2022/02/24 12:47:56;;;;;;;;;;;10.90;99.90;;;;;;5023346;28;19910;-89
2022/02/24 12:50:21;;;;;;;;;;;11.00;99.90;;;;;;5013654;28;20284;-86
2022/02/24 12:52:47;;;;;;;;;;;11.00;99.90;;;;;;5032146;28;19913;-87
2022/02/24 12:55:15;;;;;;;;;;;11.00;99.90;;;;;;4990663;28;19944;-87
2022/02/24 12:57:41;;;;;;;;;;;11.00;99.90;;;;;;5011063;28;19913;-87
2022/02/24 13:00:07;;;;;;;;;;;11.10;99.90;;;;;;5034863;28;20395;-87
2022/02/24 13:02:32;;;;;;;;;;;11.00;99.90;;;;;;5051532;28;20023;-86
2022/02/24 13:05:01;;;;;;;;;;;11.00;99.90;;;;;;5015338;28;19925;-85
2022/02/24 13:10:11;;;;;;;;;;;10.80;99.90;;;;;;5014640;28;19918;-87
2022/02/24 13:12:38;;;;;;;;;;;10.70;99.90;;;;;;5011637;28;19963;-87
2022/02/24 13:15:05;;;;;;;;;;;10.60;99.90;;;;;;5011726;28;19910;-87
2022/02/24 13:17:31;;;;;;;;;;;10.60;99.90;;;;;;5011448;28;19924;-85
2022/02/24 13:19:57;;;;;;;;;;;10.50;99.90;;;;;;5011678;28;20008;-88
2022/02/24 13:22:23;;;;;;;;;;;10.50;99.90;;;;;;5011519;28;19929;-86
2022/02/24 13:24:49;;;;;;;;;;;10.40;99.90;;;;;;5011458;28;19917;-87
2022/02/24 13:27:19;;;;;;;;;;;10.40;99.90;;;;;;5022152;28;19913;-86
2022/02/24 13:29:45;;;;;;;;;;;10.40;99.90;;;;;;5001938;28;19917;-87
2022/02/24 13:32:27;;;;;;;;;;;10.40;99.90;;;;;;4996210;28;19968;-86
2022/02/24 13:34:55;;;;;;;;;;;10.40;99.90;;;;;;4995770;28;20376;-87
2022/02/24 13:37:40;;;;;;;;;;;10.50;99.90;;;;;;5011053;28;19914;-88
2022/02/24 13:40:09;;;;;;;;;;;10.60;99.90;;;;;;5028277;28;19921;-89
2022/02/24 13:42:39;;;;;;;;;;;10.70;99.90;;;;;;5026117;28;19914;-88
2022/02/24 13:45:08;;;;;;;;;;;10.70;99.90;;;;;;5018361;28;19962;-86
2022/02/24 13:47:34;;;;;;;;;;;10.70;99.90;;;;;;5019909;28;19913;-86
2022/02/24 13:50:00;;;;;;;;;;;10.70;99.90;;;;;;5015960;28;19916;-88
2022/02/24 13:52:32;;;;;;;;;;;10.80;99.90;;;;;;5031716;28;19958;-87
2022/02/24 13:54:59;;;;;;;;;;;10.90;99.90;;;;;;5030591;28;19924;-87
2022/02/24 13:57:25;;;;;;;;;;;10.80;99.90;;;;;;5028286;28;19958;-87
2022/02/24 14:00:03;;;;;;;;;;;10.80;99.90;;;;;;5023919;28;19913;-86
2022/02/24 14:02:33;;;;;;;;;;;10.80;99.90;;;;;;5012933;28;19914;-87
2022/02/24 14:05:04;;;;;;;;;;;10.70;99.90;;;;;;5006158;28;20643;-86
2022/02/24 14:07:30;;;;;;;;;;;10.60;99.90;;;;;;5041986;28;19919;-86
2022/02/24 14:10:07;;;;;;;;;;;10.70;99.90;;;;;;5009670;28;20379;-86
2022/02/24 14:12:33;;;;;;;;;;;10.70;99.90;;;;;;5031096;28;19924;-88
2022/02/24 14:14:58;;;;;;;;;;;10.70;99.90;;;;;;5016281;28;19913;-87
2022/02/24 14:17:24;;;;;;;;;;;10.70;99.90;;;;;;5028876;28;20497;-88
2022/02/24 14:19:50;;;;;;;;;;;10.70;99.90;;;;;;5015469;28;19949;-87
2022/02/24 14:22:16;;;;;;;;;;;10.70;99.90;;;;;;5015243;28;19917;-87
2022/02/24 14:24:41;;;;;;;;;;;10.70;99.90;;;;;;5015217;28;19917;-88
2022/02/24 14:27:07;;;;;;;;;;;10.70;99.90;;;;;;5014975;28;19914;-87